Latest Weather Observations for Cape Nelson

IDV60801

Issued at 3:02 pm EST Tuesday 21 April 2015 (issued every 30 minutes, with the page automatically refreshed every 10 minutes)

About weather observations | Map of weather stations | Latest weather observations for VIC | Other Formats
Station Details ID: 090184 Name: CAPE NELSON LIGHTHOUSE Lat: -38.43 Lon: 141.54 Height: 45.4 m
Data from the previous 72 hours. | See also: Recent months at Cape Nelson
Date/Time
EST
Temp
°C
App
Temp
°C
Dew
Point
Rel
Hum
%
Delta-T
°C
Wind Press
QNH
hPa
Press
MSL
hPa
Rain
since 9 am
mm
Dir
 
Spd
km/h
Gust
km/h
Spd
kts
Gust
kts
21/03:00pm 15.0 10.9 8.0 63 3.5 SE 19 28 10 15 1032.1 1032.0 0.0
21/02:30pm 14.9 10.7 8.2 64 3.3 SE 20 30 11 16 1032.2 1032.1 0.0
21/02:00pm 14.9 10.4 8.4 65 3.3 SE 22 30 12 16 1032.4 1032.3 0.0
21/01:30pm 15.1 10.9 8.3 64 3.4 SSE 20 28 11 15 1032.9 1032.8 0.0
21/01:00pm 14.8 10.2 8.1 64 3.3 SSE 22 32 12 17 1033.4 1033.4 0.0
21/12:30pm 14.8 9.6 7.4 61 3.7 SE 24 32 13 17 1033.9 1033.9 0.0
21/12:00pm 15.4 10.7 7.7 60 3.8 SE 22 30 12 16 1034.3 1034.3 0.0
21/11:30am 14.9 9.3 7.2 60 3.8 SSE 26 33 14 18 1034.6 1034.6 0.0
21/11:00am 14.9 8.9 7.2 60 3.8 SSE 28 35 15 19 1034.9 1034.9 0.0
21/10:30am 14.8 9.4 7.8 63 3.5 SSE 26 35 14 19 1035.0 1035.0 0.0
21/10:00am 14.7 9.5 7.3 61 3.6 SSE 24 30 13 16 1035.1 1035.1 0.0
21/09:30am 14.4 8.5 7.7 64 3.3 SSE 28 35 15 19 1035.3 1035.3 0.0
21/09:00am 14.2 8.3 7.3 63 3.4 SSE 28 37 15 20 1035.4 1035.4 0.0
21/08:30am 14.2 8.7 7.7 65 3.2 SSE 26 32 14 17 1035.3 1035.3 0.0
21/08:00am 14.2 8.3 7.5 64 3.3 SSE 28 35 15 19 1035.0 1035.0 0.0
21/07:30am 14.0 8.4 7.3 64 3.3 SSE 26 33 14 18 1034.7 1034.7 0.0
21/07:00am 13.8 8.7 7.8 67 2.9 SSE 24 32 13 17 1034.6 1034.6 0.0
21/06:30am 13.8 8.4 7.8 67 3.0 SSE 26 33 14 18 1034.7 1034.7 0.0
21/06:00am 13.7 8.7 7.9 68 2.8 SE 24 33 13 18 1034.8 1034.8 0.0
21/05:30am 13.9 8.4 7.7 66 3.1 SSE 26 37 14 20 1034.6 1034.6 0.0
21/05:00am 13.8 8.7 7.8 67 2.9 SE 24 32 13 17 1034.6 1034.6 0.0
21/04:30am 13.4 7.9 7.4 67 2.9 SE 26 33 14 18 1034.7 1034.7 0.0
21/04:00am 13.5 9.0 8.4 71 2.5 SE 22 35 12 19 1034.7 1034.7 0.0
21/03:30am 13.4 8.8 8.3 71 2.5 SSE 22 32 12 17 1035.0 1035.0 0.0
21/03:00am 13.5 8.3 8.8 73 2.3 SE 26 35 14 19 1035.1 1035.1 0.0
21/02:30am 13.4 8.9 8.5 72 2.5 SSE 22 30 12 16 1035.4 1035.4 0.0
21/02:00am 13.4 8.9 8.7 73 2.3 SSE 22 30 12 16 1035.8 1035.8 0.0
21/01:30am 13.4 8.5 8.5 72 2.5 SSE 24 32 13 17 1036.0 1036.0 0.0
21/01:00am 13.4 8.0 7.8 69 2.7 SSE 26 32 14 17 1036.1 1036.1 0.0
21/12:30am 13.4 8.0 8.0 70 2.7 SSE 26 33 14 18 1036.1 1036.1 0.0
21/12:00am 13.4 7.9 7.6 68 2.8 SSE 26 35 14 19 1036.3 1036.3 0.0
 
Date/Time
EST
Temp
°C
App
Temp
°C
Dew
Point
Rel
Hum
%
Delta-T
°C
Wind Press
QNH
hPa
Press
MSL
hPa
Rain
since 9 am
mm
Dir
 
Spd
km/h
Gust
km/h
Spd
kts
Gust
kts
20/11:30pm 13.5 7.9 7.3 66 3.0 SSE 26 33 14 18 1036.5 1036.5 0.0
20/11:00pm 13.4 7.8 7.2 66 3.0 SSE 26 33 14 18 1036.7 1036.7 0.0
20/10:30pm 13.3 7.7 7.3 67 2.9 SSE 26 35 14 19 1037.0 1037.0 0.0
20/10:00pm 13.4 7.5 7.4 67 2.9 SSE 28 37 15 20 1037.1 1037.1 0.0
20/09:30pm 13.3 7.4 7.5 68 2.8 SSE 28 37 15 20 1037.2 1037.2 0.0
20/09:00pm 13.3 7.7 7.1 66 3.0 SSE 26 33 14 18 1037.0 1037.0 0.0
20/08:30pm 13.3 7.8 7.7 69 2.8 SSE 26 35 14 19 1037.1 1037.1 0.0
20/08:00pm 13.1 7.3 8.0 71 2.5 SSE 28 37 15 20 1037.2 1037.2 0.0
20/07:30pm 13.3 8.6 7.7 69 2.8 SSE 22 32 12 17 1037.1 1037.1 0.0
20/07:00pm 13.3 8.7 8.2 71 2.5 SSE 22 32 12 17 1037.0 1037.0 0.0
20/06:30pm 13.1 7.6 7.5 69 2.7 S 26 33 14 18 1036.9 1036.9 0.0
20/06:00pm 13.0 7.9 7.5 69 2.7 SSE 24 32 13 17 1036.9 1036.9 0.0
20/05:30pm 13.0 7.5 7.5 69 2.7 SSE 26 35 14 19 1036.9 1036.9 0.0
20/05:00pm 13.3 7.6 6.9 65 3.1 S 26 33 14 18 1036.9 1036.9 0.0
20/04:30pm 13.5 7.9 7.3 66 3.0 S 26 32 14 17 1037.0 1037.0 0.0
20/04:00pm 13.5 8.2 6.6 63 3.3 SSE 24 33 13 18 1037.1 1037.1 0.0
20/03:30pm 13.9 8.6 6.7 62 3.5 SSE 24 32 13 17 1037.1 1037.1 0.0
20/03:00pm 14.3 8.5 6.4 59 3.8 SSE 26 32 14 17 1037.0 1037.0 0.0
20/02:30pm 14.4 9.1 6.7 60 3.7 SSE 24 32 13 17 1037.0 1037.0 0.0
20/02:00pm 14.1 9.2 6.7 61 3.5 SSE 22 28 12 15 1037.1 1037.1 0.0
20/01:30pm 13.7 8.8 7.0 64 3.3 SSE 22 32 12 17 1037.5 1037.5 0.0
20/01:00pm 14.1 9.5 6.7 61 3.5 S 20 28 11 15 1037.7 1037.7 0.0
20/12:30pm 14.9 9.9 6.5 57 4.1 SSE 22 33 12 18 1038.1 1038.1 0.0
20/12:00pm 14.3 9.7 6.4 59 3.8 SSE 20 28 11 15 1038.4 1038.4 0.0
20/11:30am 14.2 9.7 6.3 59 3.8 SSE 19 26 10 14 1038.5 1038.5 0.0
20/11:00am 14.0 8.9 5.9 58 3.8 S 22 30 12 16 1038.7 1038.7 0.0
20/10:30am 14.1 9.7 6.5 60 3.7 S 19 28 10 15 1038.8 1038.8 0.0
20/10:00am 14.4 10.0 6.5 59 3.8 S 19 28 10 15 1038.8 1038.8 0.0
20/09:30am 13.8 9.3 6.2 60 3.6 SSE 19 26 10 14 1038.7 1038.7 0.0
20/09:00am 13.5 9.0 5.9 60 3.6 SSE 19 24 10 13 1038.7 1038.7 0.0
20/08:30am 13.3 8.7 6.4 63 3.3 SSE 20 28 11 15 1038.7 1038.7 0.0
20/08:00am 12.7 7.8 5.1 60 3.5 SSE 20 26 11 14 1038.4 1038.4 0.0
20/07:30am 12.2 7.0 5.4 63 3.2 S 22 28 12 15 1038.2 1038.2 0.0
20/07:00am 12.1 7.1 4.8 61 3.3 S 20 28 11 15 1038.1 1038.1 0.0
20/06:30am 11.7 7.4 6.8 72 2.3 S 19 28 10 15 1038.1 1038.1 0.0
20/06:00am 12.0 7.4 6.5 69 2.6 S 20 28 11 15 1038.0 1038.0 0.0
20/05:30am 11.7 6.3 6.4 70 2.5 S 24 32 13 17 1037.9 1037.9 0.0
20/05:00am 12.2 7.6 6.7 69 2.6 S 20 30 11 16 1037.7 1037.7 0.0
20/04:30am 12.0 7.1 5.2 63 3.1 S 20 28 11 15 1037.6 1037.6 0.0
20/04:00am 11.9 7.1 5.8 66 2.8 S 20 28 11 15 1037.3 1037.3 0.0
20/03:30am 11.9 6.7 5.5 65 3.0 S 22 37 12 20 1037.2 1037.2 0.0
20/03:00am 11.9 6.2 5.1 63 3.1 S 24 32 13 17 1037.3 1037.3 0.0
20/02:30am 11.9 7.9 5.1 63 3.1 S 15 22 8 12 1037.5 1037.5 0.0
20/02:00am 11.7 6.8 5.1 64 3.0 S 20 28 11 15 1037.4 1037.4 0.0
20/01:30am 11.7 6.9 4.9 63 3.1 S 19 26 10 14 1037.3 1037.3 0.0
20/01:00am 11.7 6.9 4.4 61 3.3 S 19 28 10 15 1037.4 1037.4 0.0
20/12:30am 11.8 6.9 5.0 63 3.1 S 20 30 11 16 1037.4 1037.4 0.0
20/12:00am 11.6 6.2 4.6 62 3.1 S 22 32 12 17 1037.5 1037.5 0.0
 
Date/Time
EST
Temp
°C
App
Temp
°C
Dew
Point
Rel
Hum
%
Delta-T
°C
Wind Press
QNH
hPa
Press
MSL
hPa
Rain
since 9 am
mm
Dir
 
Spd
km/h
Gust
km/h
Spd
kts
Gust
kts
19/11:30pm 11.7 6.4 4.9 63 3.1 S 22 32 12 17 1037.7 1037.7 0.0
19/11:00pm 11.7 6.0 4.9 63 3.1 SSE 24 32 13 17 1037.6 1037.6 0.0
19/10:30pm 11.7 5.6 4.9 63 3.1 S 26 35 14 19 1037.6 1037.6 0.0
19/10:00pm 11.8 5.7 4.8 62 3.2 S 26 33 14 18 1037.5 1037.5 0.0
19/09:30pm 11.7 5.6 3.0 55 3.8 S 24 33 13 18 1037.4 1037.4 0.0
19/09:00pm 11.8 5.5 3.8 58 3.5 S 26 35 14 19 1037.2 1037.2 0.0
19/08:30pm 11.8 6.2 3.6 57 3.6 SSE 22 32 12 17 1036.8 1036.8 0.0
19/08:00pm 11.9 6.1 4.4 60 3.4 SSE 24 32 13 17 1036.4 1036.4 0.0
19/07:30pm 11.7 4.9 3.0 55 3.8 S 28 33 15 18 1036.0 1036.0 0.0
19/07:00pm 11.6 5.1 2.4 53 3.9 S 26 41 14 22 1035.6 1035.6 0.0
19/06:30pm 11.5 4.5 -0.3 44 4.8 S 26 35 14 19 1035.2 1035.2 0.0
19/06:00pm 11.5 5.1 1.2 49 4.3 S 24 35 13 19 1034.9 1034.9 0.0
19/05:30pm 11.7 5.1 1.9 51 4.2 S 26 37 14 20 1034.7 1034.7 0.0
19/05:00pm 12.0 4.3 0.1 44 4.8 S 30 43 16 23 1034.4 1034.4 0.0
19/04:30pm 12.4 6.0 1.1 46 4.8 S 24 37 13 20 1034.2 1034.2 0.0
19/04:00pm 12.7 5.7 1.7 47 4.7 S 28 39 15 21 1033.9 1033.9 0.0
19/03:30pm 12.9 5.9 1.9 47 4.8 S 28 37 15 20 1033.7 1033.7 0.0
19/03:00pm 13.2 6.7 2.7 49 4.6 S 26 35 14 19 1033.4 1033.4 0.0
19/02:30pm 13.2 5.9 2.4 48 4.7 S 30 43 16 23 1033.3 1033.3 0.0
19/02:00pm 13.1 5.2 1.1 44 5.1 S 32 43 17 23 1033.1 1033.1 0.0
19/01:30pm 13.2 6.0 3.0 50 4.5 S 30 44 16 24 1032.8 1032.7 0.0
19/01:00pm 13.1 5.3 1.8 46 4.8 S 32 46 17 25 1032.7 1032.6 0.0
19/12:30pm 13.2 5.3 1.2 44 5.1 S 32 43 17 23 1032.7 1032.6 0.0
19/12:00pm 13.0 5.1 2.0 47 4.7 S 33 48 18 26 1032.7 1032.6 0.0
19/11:47am 12.8 5.1 2.4 49 4.5 S 32 50 17 27 1032.5 1032.4 0.0
19/11:30am 12.8 5.2 2.6 50 4.5 S 32 48 17 26 1032.3 1032.2 0.0
19/11:00am 12.5 3.8 4.0 56 3.8 S 39 50 21 27 1032.1 1032.0 0.0
19/10:30am 12.0 4.6 4.0 58 3.6 S 32 46 17 25 1031.7 1031.6 0.0
19/10:00am 12.5 5.8 5.7 63 3.2 S 30 43 16 23 1031.1 1031.0 0.0
19/09:44am 12.1 5.3 5.3 63 3.1 S 30 48 16 26 1030.8 1030.7 0.0
19/09:30am 11.9 4.5 3.9 58 3.6 S 32 44 17 24 1030.6 1030.5 0.0
19/09:00am 11.7 3.0 4.0 59 3.4 S 39 54 21 29 1030.2 1030.1 5.0
19/08:42am 11.4 3.2 4.8 64 3.0 S 37 59 20 32 1029.8 1029.7 5.0
19/08:30am 11.9 4.4 4.6 61 3.3 S 33 48 18 26 1029.6 1029.5 5.0
19/08:00am 11.4 3.3 5.1 65 2.9 S 37 57 20 31 1028.9 1028.8 5.0
19/07:36am 11.7 4.3 4.9 63 3.1 S 33 52 18 28 1028.2 1028.1 5.0
19/07:30am 11.2 3.0 2.8 56 3.6 S 35 50 19 27 1028.1 1028.0 5.0
19/07:29am 11.4 3.4 3.7 59 3.4 S 35 54 19 29 1028.1 1028.0 5.0
19/07:00am 11.6 2.9 4.1 60 3.3 S 39 54 21 29 1027.3 1027.2 5.0
19/06:30am 11.7 2.2 4.0 59 3.5 S 43 56 23 30 1026.4 1026.4 5.0
19/06:00am 11.7 3.9 5.1 64 3.0 S 35 50 19 27 1025.8 1025.8 5.0
19/05:39am 11.5 3.8 5.4 66 2.8 S 35 54 19 29 1025.3 1025.3 4.8
19/05:30am 11.2 4.3 4.7 64 2.9 S 30 39 16 21 1025.2 1025.2 4.8
19/05:02am 10.8 0.5 4.5 65 2.8 S 48 67 26 36 1024.9 1024.9 4.8
19/05:00am 10.8 0.1 4.7 66 2.7 S 50 67 27 36 1024.9 1024.9 4.8
19/04:40am 12.1 3.0 5.7 65 3.0 S 43 72 23 39 1024.5 1024.5 4.8
19/04:30am 11.7 3.1 4.9 63 3.1 S 39 56 21 30 1024.2 1024.2 4.8
19/04:23am 11.7 4.5 5.1 64 3.0 S 32 50 17 27 1024.1 1024.1 4.8
19/04:00am 11.6 3.1 5.3 65 2.9 S 39 52 21 28 1023.8 1023.8 4.8
19/03:30am 11.4 2.5 5.3 66 2.8 S 41 59 22 32 1023.4 1023.4 4.8
19/03:27am 11.2 2.4 5.5 68 2.6 S 41 59 22 32 1023.4 1023.4 4.8
19/03:00am 11.6 2.3 4.8 63 3.1 S 43 54 23 29 1023.1 1023.1 4.8
19/02:30am 11.6 3.0 6.5 71 2.4 S 41 57 22 31 1022.7 1022.7 4.8
19/02:00am 12.0 4.5 6.1 67 2.8 S 35 54 19 29 1022.3 1022.3 4.8
19/01:43am 11.8 4.6 5.2 64 3.0 S 32 50 17 27 1022.3 1022.3 4.8
19/01:30am 11.9 2.8 5.8 66 2.9 S 43 54 23 29 1022.1 1022.1 4.8
19/01:03am 11.5 3.9 6.0 69 2.6 S 35 56 19 30 1021.8 1021.8 4.8
19/01:00am 12.1 4.7 6.8 70 2.5 S 35 52 19 28 1021.7 1021.7 4.8
19/12:37am 11.8 4.6 5.9 67 2.8 S 33 52 18 28 1021.4 1021.4 4.8
19/12:30am 11.7 3.9 6.6 71 2.4 S 37 52 20 28 1021.3 1021.3 4.8
19/12:03am 12.3 5.6 5.7 64 3.1 S 30 56 16 30 1021.0 1021.0 4.8
19/12:00am 12.4 7.0 6.2 66 2.9 S 24 44 13 24 1020.8 1020.8 4.8
 
Date/Time
EST
Temp
°C
App
Temp
°C
Dew
Point
Rel
Hum
%
Delta-T
°C
Wind Press
QNH
hPa
Press
MSL
hPa
Rain
since 9 am
mm
Dir
 
Spd
km/h
Gust
km/h
Spd
kts
Gust
kts
18/11:30pm 12.2 6.0 6.3 67 2.8 S 28 41 15 22 1020.6 1020.6 4.8
18/11:00pm 11.8 4.7 6.3 69 2.6 S 33 50 18 27 1020.4 1020.4 4.8
18/10:48pm 12.2 6.6 7.1 71 2.5 SSE 26 54 14 29 1020.3 1020.3 4.8
18/10:30pm 12.5 7.1 6.5 67 2.9 SSE 24 37 13 20 1019.9 1019.9 4.8
18/10:19pm 12.5 7.0 5.9 64 3.1 SSE 24 46 13 25 1019.7 1019.7 4.8
18/10:00pm 12.4 6.4 5.3 62 3.3 SSE 26 43 14 23 1019.4 1019.4 4.8
18/09:44pm 12.8 7.5 7.0 68 2.8 SE 24 50 13 27 1018.8 1018.8 4.8
18/09:30pm 12.7 7.1 5.6 62 3.3 S 24 43 13 23 1018.6 1018.6 4.8
18/09:00pm 12.7 7.4 5.1 60 3.5 ESE 22 39 12 21 1017.8 1017.8 4.8
18/08:30pm 12.5 8.2 6.8 68 2.7 NE 19 32 10 17 1017.6 1017.6 4.8
18/08:00pm 12.9 8.5 7.4 69 2.7 ESE 20 37 11 20 1016.9 1016.9 4.8
18/07:30pm 13.1 7.8 6.7 65 3.1 SSE 24 50 13 27 1016.4 1016.4 4.8
18/07:23pm 12.9 8.4 6.0 63 3.3 ESE 19 50 10 27 1016.3 1016.3 4.8
18/07:00pm 12.7 7.3 6.3 65 3.0 E 24 39 13 21 1015.8 1015.8 4.8
18/06:50pm 13.1 7.8 6.9 66 3.0 ENE 24 50 13 27 1015.5 1015.5 4.8
18/06:30pm 13.2 8.3 7.0 66 3.0 NNE 22 37 12 20 1015.1 1015.1 4.8
18/06:00pm 13.5 9.2 7.7 68 2.9 N 20 35 11 19 1014.5 1014.4 4.8
18/05:30pm 13.6 9.4 8.2 70 2.7 N 20 39 11 21 1013.7 1013.6 4.8
18/05:00pm 13.4 9.3 8.5 72 2.5 NNE 20 35 11 19 1013.5 1013.4 4.8
18/04:30pm 13.0 6.9 8.1 72 2.4 WNW 30 44 16 24 1013.2 1013.1 4.8
18/04:00pm 13.0 7.8 10.2 83 1.4 W 28 39 15 21 1013.2 1013.1 4.8
18/03:30pm 12.1 6.4 9.7 85 1.2 W 30 39 16 21 1013.2 1013.1 4.6

Other Formats:

Comma delimited format used in spreadsheet applications
http://www.bom.gov.au/fwo/IDV60801/IDV60801.94826.axf

JavaScript Object Notation format (JSON) in row-major order
http://www.bom.gov.au/fwo/IDV60801/IDV60801.94826.json